sensor_id;sensor_type;location;lat;lon;timestamp;pressure;altitude;pressure_sealevel;temperature;humidity
78855;BME280;68206;59.956;30.234;2024-03-23T00:56:19;99099.16;;;10.36;49.38
78855;BME280;68206;59.956;30.234;2024-03-23T00:58:46;99092.06;;;10.36;49.40
78855;BME280;68206;59.956;30.234;2024-03-23T01:01:12;99082.31;;;10.37;49.60
78855;BME280;68206;59.956;30.234;2024-03-23T01:03:39;99076.25;;;10.35;48.88
78855;BME280;68206;59.956;30.234;2024-03-23T01:06:06;99069.06;;;10.37;49.08
78855;BME280;68206;59.956;30.234;2024-03-23T01:08:33;99068.09;;;10.38;49.12
78855;BME280;68206;59.956;30.234;2024-03-23T01:11:01;99061.94;;;10.37;49.15
78855;BME280;68206;59.956;30.234;2024-03-23T01:13:28;99056.56;;;10.39;48.99
78855;BME280;68206;59.956;30.234;2024-03-23T01:15:55;99050.41;;;10.38;49.14
78855;BME280;68206;59.956;30.234;2024-03-23T01:18:23;99047.88;;;10.37;48.78
78855;BME280;68206;59.956;30.234;2024-03-23T01:20:52;99040.69;;;10.39;49.12
78855;BME280;68206;59.956;30.234;2024-03-23T01:23:19;99030.94;;;10.39;48.60
78855;BME280;68206;59.956;30.234;2024-03-23T01:25:52;99031.78;;;10.40;48.70
78855;BME280;68206;59.956;30.234;2024-03-23T01:28:21;99016.75;;;10.40;48.99
78855;BME280;68206;59.956;30.234;2024-03-23T01:30:47;99015.88;;;10.40;49.26
78855;BME280;68206;59.956;30.234;2024-03-23T01:33:15;99007.94;;;10.40;48.95
78855;BME280;68206;59.956;30.234;2024-03-23T01:35:42;99000.84;;;10.40;49.19
78855;BME280;68206;59.956;30.234;2024-03-23T01:38:09;99004.34;;;10.41;48.67
78855;BME280;68206;59.956;30.234;2024-03-23T01:40:35;98998.19;;;10.40;49.33
78855;BME280;68206;59.956;30.234;2024-03-23T01:43:04;98983.16;;;10.41;48.87
78855;BME280;68206;59.956;30.234;2024-03-23T01:45:32;98988.38;;;10.42;48.25
78855;BME280;68206;59.956;30.234;2024-03-23T01:48:00;98978.72;;;10.41;49.30
78855;BME280;68206;59.956;30.234;2024-03-23T01:50:26;98983.94;;;10.43;48.93
78855;BME280;68206;59.956;30.234;2024-03-23T01:52:54;98981.28;;;10.43;48.31
78855;BME280;68206;59.956;30.234;2024-03-23T01:55:21;98971.50;;;10.43;48.66
78855;BME280;68206;59.956;30.234;2024-03-23T01:57:49;98965.28;;;10.44;49.01
78855;BME280;68206;59.956;30.234;2024-03-23T02:00:16;98967.91;;;10.44;48.36
78855;BME280;68206;59.956;30.234;2024-03-23T02:02:45;98961.69;;;10.45;48.51
78855;BME280;68206;59.956;30.234;2024-03-23T02:05:13;98957.31;;;10.44;48.32
78855;BME280;68206;59.956;30.234;2024-03-23T02:07:41;98962.63;;;10.44;48.67
78855;BME280;68206;59.956;30.234;2024-03-23T02:10:09;98952.88;;;10.45;48.94
78855;BME280;68206;59.956;30.234;2024-03-23T02:12:39;98953.72;;;10.45;48.43
78855;BME280;68206;59.956;30.234;2024-03-23T02:15:06;98931.09;;;10.40;49.30
78855;BME280;68206;59.956;30.234;2024-03-23T02:17:35;98940.41;;;10.47;48.34
78855;BME280;68206;59.956;30.234;2024-03-23T02:20:04;98938.69;;;10.46;49.36
78855;BME280;68206;59.956;30.234;2024-03-23T02:22:38;98938.59;;;10.47;48.41
78855;BME280;68206;59.956;30.234;2024-03-23T02:25:06;98942.13;;;10.48;49.33
78855;BME280;68206;59.956;30.234;2024-03-23T02:27:33;98931.59;;;10.46;48.66
78855;BME280;68206;59.956;30.234;2024-03-23T02:30:01;98928.84;;;10.48;49.02
78855;BME280;68206;59.956;30.234;2024-03-23T02:32:30;98924.50;;;10.47;49.26
78855;BME280;68206;59.956;30.234;2024-03-23T02:34:56;98919.97;;;10.49;49.05
78855;BME280;68206;59.956;30.234;2024-03-23T02:37:23;98919.13;;;10.48;48.47
78855;BME280;68206;59.956;30.234;2024-03-23T02:39:50;98912.97;;;10.48;48.62
78855;BME280;68206;59.956;30.234;2024-03-23T02:42:18;98918.06;;;10.51;48.96
78855;BME280;68206;59.956;30.234;2024-03-23T02:44:45;98910.97;;;10.51;48.71
78855;BME280;68206;59.956;30.234;2024-03-23T02:47:12;98912.75;;;10.51;48.88
78855;BME280;68206;59.956;30.234;2024-03-23T02:49:38;98908.50;;;10.48;48.76
78855;BME280;68206;59.956;30.234;2024-03-23T02:52:05;98910.88;;;10.53;48.53
78855;BME280;68206;59.956;30.234;2024-03-23T02:54:31;98907.31;;;10.54;48.72
78855;BME280;68206;59.956;30.234;2024-03-23T02:56:59;98913.34;;;10.56;48.74
78855;BME280;68206;59.956;30.234;2024-03-23T02:59:26;98899.28;;;10.56;49.27
78855;BME280;68206;59.956;30.234;2024-03-23T03:01:53;98901.81;;;10.57;48.21
78855;BME280;68206;59.956;30.234;2024-03-23T03:04:20;98899.16;;;10.57;48.89
78855;BME280;68206;59.956;30.234;2024-03-23T03:06:47;98898.41;;;10.55;48.72
78855;BME280;68206;59.956;30.234;2024-03-23T03:09:13;98899.06;;;10.59;49.29
78855;BME280;68206;59.956;30.234;2024-03-23T03:11:40;98899.94;;;10.59;49.01
78855;BME280;68206;59.956;30.234;2024-03-23T03:14:06;98895.47;;;10.60;49.16
78855;BME280;68206;59.956;30.234;2024-03-23T03:16:35;98893.59;;;10.62;48.70
78855;BME280;68206;59.956;30.234;2024-03-23T03:19:01;98896.25;;;10.62;49.00
78855;BME280;68206;59.956;30.234;2024-03-23T03:21:29;98890.94;;;10.62;49.02
78855;BME280;68206;59.956;30.234;2024-03-23T03:23:56;98888.19;;;10.63;48.92
78855;BME280;68206;59.956;30.234;2024-03-23T03:26:23;98889.03;;;10.64;48.87
78855;BME280;68206;59.956;30.234;2024-03-23T03:28:49;98884.69;;;10.63;49.02
78855;BME280;68206;59.956;30.234;2024-03-23T03:31:17;98877.50;;;10.65;48.16
78855;BME280;68206;59.956;30.234;2024-03-23T03:33:45;98874.84;;;10.65;48.61
78855;BME280;68206;59.956;30.234;2024-03-23T03:36:12;98865.09;;;10.65;48.81
78855;BME280;68206;59.956;30.234;2024-03-23T03:38:38;98872.13;;;10.66;49.13
78855;BME280;68206;59.956;30.234;2024-03-23T03:41:06;98865.88;;;10.67;48.98
78855;BME280;68206;59.956;30.234;2024-03-23T03:43:32;98856.22;;;10.66;49.79
78855;BME280;68206;59.956;30.234;2024-03-23T03:46:00;98868.41;;;10.69;48.75
78855;BME280;68206;59.956;30.234;2024-03-23T03:48:27;98863.22;;;10.67;49.04
78855;BME280;68206;59.956;30.234;2024-03-23T03:50:56;98859.53;;;10.70;48.68
78855;BME280;68206;59.956;30.234;2024-03-23T03:53:22;98855.06;;;10.70;48.79
78855;BME280;68206;59.956;30.234;2024-03-23T03:55:50;98863.03;;;10.70;48.91
78855;BME280;68206;59.956;30.234;2024-03-23T03:58:16;98854.13;;;10.71;48.55
78855;BME280;68206;59.956;30.234;2024-03-23T04:00:43;98854.13;;;10.71;49.49
78855;BME280;68206;59.956;30.234;2024-03-23T04:03:09;98848.81;;;10.71;48.62
78855;BME280;68206;59.956;30.234;2024-03-23T04:05:37;98852.25;;;10.73;48.85
78855;BME280;68206;59.956;30.234;2024-03-23T04:08:06;98857.56;;;10.73;49.55
78855;BME280;68206;59.956;30.234;2024-03-23T04:10:34;98854.06;;;10.73;49.03
78855;BME280;68206;59.956;30.234;2024-03-23T04:13:00;98854.91;;;10.73;49.28
78855;BME280;68206;59.956;30.234;2024-03-23T04:15:30;98845.31;;;10.71;49.47
78855;BME280;68206;59.956;30.234;2024-03-23T04:17:56;98858.28;;;10.75;49.88
78855;BME280;68206;59.956;30.234;2024-03-23T04:20:23;98862.75;;;10.75;49.14
78855;BME280;68206;59.956;30.234;2024-03-23T04:22:49;98865.41;;;10.75;48.90
78855;BME280;68206;59.956;30.234;2024-03-23T04:25:18;98867.97;;;10.76;48.92
78855;BME280;68206;59.956;30.234;2024-03-23T04:27:45;98865.31;;;10.76;49.20
78855;BME280;68206;59.956;30.234;2024-03-23T04:30:12;98860.00;;;10.76;49.00
78855;BME280;68206;59.956;30.234;2024-03-23T04:32:39;98873.19;;;10.78;49.16
78855;BME280;68206;59.956;30.234;2024-03-23T04:35:06;98869.66;;;10.77;49.25
78855;BME280;68206;59.956;30.234;2024-03-23T04:37:35;98869.66;;;10.77;48.44
78855;BME280;68206;59.956;30.234;2024-03-23T04:40:03;98872.31;;;10.77;49.42
78855;BME280;68206;59.956;30.234;2024-03-23T04:42:32;98874.03;;;10.78;49.47
78855;BME280;68206;59.956;30.234;2024-03-23T04:44:59;98876.69;;;10.78;48.97
78855;BME280;68206;59.956;30.234;2024-03-23T04:47:28;98879.34;;;10.78;49.23
78855;BME280;68206;59.956;30.234;2024-03-23T04:49:55;98881.06;;;10.79;49.24
78855;BME280;68206;59.956;30.234;2024-03-23T04:52:22;98877.47;;;10.80;49.40
78855;BME280;68206;59.956;30.234;2024-03-23T04:54:49;98875.75;;;10.79;48.91
78855;BME280;68206;59.956;30.234;2024-03-23T04:57:16;98884.44;;;10.81;49.63
78855;BME280;68206;59.956;30.234;2024-03-23T04:59:47;98880.84;;;10.82;48.44
78855;BME280;68206;59.956;30.234;2024-03-23T05:02:14;98876.50;;;10.81;49.84
78855;BME280;68206;59.956;30.234;2024-03-23T05:04:42;98878.19;;;10.82;49.51
78855;BME280;68206;59.956;30.234;2024-03-23T05:07:08;98873.75;;;10.83;48.56
78855;BME280;68206;59.956;30.234;2024-03-23T05:09:35;98872.81;;;10.84;49.27
78855;BME280;68206;59.956;30.234;2024-03-23T05:12:02;98878.97;;;10.84;48.64
78855;BME280;68206;59.956;30.234;2024-03-23T05:14:29;98882.47;;;10.85;48.75
78855;BME280;68206;59.956;30.234;2024-03-23T05:16:57;98881.53;;;10.86;48.66
78855;BME280;68206;59.956;30.234;2024-03-23T05:19:25;98884.19;;;10.86;48.07
78855;BME280;68206;59.956;30.234;2024-03-23T05:21:51;98879.75;;;10.86;48.43
78855;BME280;68206;59.956;30.234;2024-03-23T05:24:19;98872.63;;;10.87;49.52
78855;BME280;68206;59.956;30.234;2024-03-23T05:26:45;98876.13;;;10.87;48.47
78855;BME280;68206;59.956;30.234;2024-03-23T05:29:12;98881.34;;;10.89;48.96
78855;BME280;68206;59.956;30.234;2024-03-23T05:31:39;98867.13;;;10.90;49.50
78855;BME280;68206;59.956;30.234;2024-03-23T05:34:09;98882.13;;;10.91;47.93
78855;BME280;68206;59.956;30.234;2024-03-23T05:36:35;98873.22;;;10.92;48.89
78855;BME280;68206;59.956;30.234;2024-03-23T05:39:03;98878.41;;;10.93;48.56
78855;BME280;68206;59.956;30.234;2024-03-23T05:41:30;98880.13;;;10.95;48.30
78855;BME280;68206;59.956;30.234;2024-03-23T05:43:57;98880.88;;;10.97;48.60
78855;BME280;68206;59.956;30.234;2024-03-23T05:46:23;98875.66;;;10.95;47.73
78855;BME280;68206;59.956;30.234;2024-03-23T05:48:50;98874.66;;;10.98;48.23
78855;BME280;68206;59.956;30.234;2024-03-23T05:51:27;98880.81;;;10.98;48.11
78855;BME280;68206;59.956;30.234;2024-03-23T05:53:54;98876.34;;;10.99;48.65
78855;BME280;68206;59.956;30.234;2024-03-23T05:56:20;98879.75;;;11.01;48.36
78855;BME280;68206;59.956;30.234;2024-03-23T05:58:47;98885.03;;;11.01;48.78
78855;BME280;68206;59.956;30.234;2024-03-23T06:01:14;98888.47;;;11.03;49.12
78855;BME280;68206;59.956;30.234;2024-03-23T06:03:41;98887.69;;;11.01;48.28
78855;BME280;68206;59.956;30.234;2024-03-23T06:06:09;98890.19;;;11.04;48.47
78855;BME280;68206;59.956;30.234;2024-03-23T06:08:39;98887.44;;;11.05;48.08
78855;BME280;68206;59.956;30.234;2024-03-23T06:11:05;98891.78;;;11.06;48.55
78855;BME280;68206;59.956;30.234;2024-03-23T06:13:33;98897.00;;;11.08;48.60
78855;BME280;68206;59.956;30.234;2024-03-23T06:16:00;98889.81;;;11.10;48.03
78855;BME280;68206;59.956;30.234;2024-03-23T06:18:28;98896.84;;;11.11;48.57
78855;BME280;68206;59.956;30.234;2024-03-23T06:20:54;98893.25;;;11.12;48.38
78855;BME280;68206;59.956;30.234;2024-03-23T06:23:21;98905.53;;;11.13;47.98
78855;BME280;68206;59.956;30.234;2024-03-23T06:25:49;98896.53;;;11.15;47.99
78855;BME280;68206;59.956;30.234;2024-03-23T06:28:16;98895.59;;;11.16;48.13
78855;BME280;68206;59.956;30.234;2024-03-23T06:30:44;98900.06;;;11.16;48.31
78855;BME280;68206;59.956;30.234;2024-03-23T06:33:11;98903.34;;;11.19;48.63
78855;BME280;68206;59.956;30.234;2024-03-23T06:35:37;98897.97;;;11.21;47.96
78855;BME280;68206;59.956;30.234;2024-03-23T06:38:04;98902.34;;;11.22;48.11
78855;BME280;68206;59.956;30.234;2024-03-23T06:40:31;98902.25;;;11.23;48.65
78855;BME280;68206;59.956;30.234;2024-03-23T06:42:59;98911.06;;;11.24;48.44
78855;BME280;68206;59.956;30.234;2024-03-23T06:45:25;98915.41;;;11.25;48.13
78855;BME280;68206;59.956;30.234;2024-03-23T06:47:52;98913.59;;;11.25;48.00
78855;BME280;68206;59.956;30.234;2024-03-23T06:50:21;98917.97;;;11.26;47.45
78855;BME280;68206;59.956;30.234;2024-03-23T06:52:49;98908.22;;;11.27;47.58
78855;BME280;68206;59.956;30.234;2024-03-23T06:55:15;98915.22;;;11.28;47.75
78855;BME280;68206;59.956;30.234;2024-03-23T06:57:43;98919.50;;;11.30;47.53
78855;BME280;68206;59.956;30.234;2024-03-23T07:00:12;98921.09;;;11.33;47.64
78855;BME280;68206;59.956;30.234;2024-03-23T07:02:41;98922.91;;;11.32;47.61
78855;BME280;68206;59.956;30.234;2024-03-23T07:05:07;98922.91;;;11.32;47.48
78855;BME280;68206;59.956;30.234;2024-03-23T07:07:34;98917.59;;;11.32;48.05
78855;BME280;68206;59.956;30.234;2024-03-23T07:10:01;98917.59;;;11.32;47.66
78855;BME280;68206;59.956;30.234;2024-03-23T07:12:29;98912.28;;;11.32;47.81
78855;BME280;68206;59.956;30.234;2024-03-23T07:14:55;98921.94;;;11.33;47.66
78855;BME280;68206;59.956;30.234;2024-03-23T07:17:24;98939.50;;;11.36;47.31
78855;BME280;68206;59.956;30.234;2024-03-23T07:19:50;98933.34;;;11.36;48.36
78855;BME280;68206;59.956;30.234;2024-03-23T07:22:17;98936.72;;;11.38;47.34
78855;BME280;68206;59.956;30.234;2024-03-23T07:24:44;98924.44;;;11.37;47.54
78855;BME280;68206;59.956;30.234;2024-03-23T07:27:11;98934.84;;;11.40;48.26
78855;BME280;68206;59.956;30.234;2024-03-23T07:29:37;98929.53;;;11.40;47.77
78855;BME280;68206;59.956;30.234;2024-03-23T07:32:05;98934.75;;;11.41;47.20
78855;BME280;68206;59.956;30.234;2024-03-23T07:34:33;98940.81;;;11.43;47.17
78855;BME280;68206;59.956;30.234;2024-03-23T07:37:00;98935.63;;;11.42;47.97
78855;BME280;68206;59.956;30.234;2024-03-23T07:39:26;98944.44;;;11.42;48.15
78855;BME280;68206;59.956;30.234;2024-03-23T07:41:54;98945.28;;;11.43;48.14
78855;BME280;68206;59.956;30.234;2024-03-23T07:44:20;98951.44;;;11.43;47.91
78855;BME280;68206;59.956;30.234;2024-03-23T07:46:47;98960.25;;;11.44;48.13
78855;BME280;68206;59.956;30.234;2024-03-23T07:49:14;98959.38;;;11.43;47.35
78855;BME280;68206;59.956;30.234;2024-03-23T07:51:42;98958.56;;;11.43;47.44
78855;BME280;68206;59.956;30.234;2024-03-23T07:54:11;98956.94;;;11.40;47.74
78855;BME280;68206;59.956;30.234;2024-03-23T07:56:38;98963.97;;;11.41;47.17
78855;BME280;68206;59.956;30.234;2024-03-23T07:59:04;98968.41;;;11.41;47.92
78855;BME280;68206;59.956;30.234;2024-03-23T08:01:32;98948.22;;;11.38;47.17
78855;BME280;68206;59.956;30.234;2024-03-23T08:03:59;98967.56;;;11.40;47.75
78855;BME280;68206;59.956;30.234;2024-03-23T08:06:27;98969.34;;;11.40;46.94
78855;BME280;68206;59.956;30.234;2024-03-23T08:08:55;98961.38;;;11.40;47.50
78855;BME280;68206;59.956;30.234;2024-03-23T08:11:26;98958.75;;;11.40;47.54
78855;BME280;68206;59.956;30.234;2024-03-23T08:13:52;98972.00;;;11.40;47.44
78855;BME280;68206;59.956;30.234;2024-03-23T08:16:19;98984.41;;;11.39;47.44
78855;BME280;68206;59.956;30.234;2024-03-23T08:18:46;98981.78;;;11.39;46.96
78855;BME280;68206;59.956;30.234;2024-03-23T08:21:14;98994.09;;;11.40;47.22
78855;BME280;68206;59.956;30.234;2024-03-23T08:23:40;98979.13;;;11.39;47.12
78855;BME280;68206;59.956;30.234;2024-03-23T08:26:09;98998.56;;;11.40;46.79
78855;BME280;68206;59.956;30.234;2024-03-23T08:28:36;98996.75;;;11.40;46.63
78855;BME280;68206;59.956;30.234;2024-03-23T08:31:04;98995.81;;;11.41;47.03
78855;BME280;68206;59.956;30.234;2024-03-23T08:33:31;98999.41;;;11.40;47.20
78855;BME280;68206;59.956;30.234;2024-03-23T08:35:59;98998.38;;;11.43;46.46
78855;BME280;68206;59.956;30.234;2024-03-23T08:38:27;98994.88;;;11.42;46.71
78855;BME280;68206;59.956;30.234;2024-03-23T08:40:57;99007.94;;;11.45;47.21
78855;BME280;68206;59.956;30.234;2024-03-23T08:43:26;99003.41;;;11.47;47.21
78855;BME280;68206;59.956;30.234;2024-03-23T08:45:53;98999.81;;;11.48;46.58
78855;BME280;68206;59.956;30.234;2024-03-23T08:48:19;98999.59;;;11.51;46.87
78855;BME280;68206;59.956;30.234;2024-03-23T08:50:47;98990.03;;;11.49;46.81
78855;BME280;68206;59.956;30.234;2024-03-23T08:53:14;99004.75;;;11.54;46.13
78855;BME280;68206;59.956;30.234;2024-03-23T08:55:41;99007.41;;;11.54;46.75
78855;BME280;68206;59.956;30.234;2024-03-23T08:58:09;99005.47;;;11.56;46.95
78855;BME280;68206;59.956;30.234;2024-03-23T09:00:37;99001.88;;;11.57;46.75
78855;BME280;68206;59.956;30.234;2024-03-23T09:03:04;99019.53;;;11.58;46.75
78855;BME280;68206;59.956;30.234;2024-03-23T09:05:31;99015.06;;;11.59;45.98
78855;BME280;68206;59.956;30.234;2024-03-23T09:08:02;99005.22;;;11.61;46.40
78855;BME280;68206;59.956;30.234;2024-03-23T09:10:28;99018.31;;;11.64;46.11
78855;BME280;68206;59.956;30.234;2024-03-23T09:12:55;99025.25;;;11.66;46.47
78855;BME280;68206;59.956;30.234;2024-03-23T09:15:21;99026.97;;;11.67;46.55
78855;BME280;68206;59.956;30.234;2024-03-23T09:17:50;99010.25;;;11.65;46.30
78855;BME280;68206;59.956;30.234;2024-03-23T09:20:16;99025.97;;;11.68;45.50
78855;BME280;68206;59.956;30.234;2024-03-23T09:22:44;99031.28;;;11.68;45.95
78855;BME280;68206;59.956;30.234;2024-03-23T09:25:11;99033.00;;;11.69;46.48
78855;BME280;68206;59.956;30.234;2024-03-23T09:27:38;99038.31;;;11.69;45.75
78855;BME280;68206;59.956;30.234;2024-03-23T09:30:06;99034.63;;;11.72;46.30
78855;BME280;68206;59.956;30.234;2024-03-23T09:32:33;99034.81;;;11.69;45.50
78855;BME280;68206;59.956;30.234;2024-03-23T09:35:00;99059.38;;;11.72;46.12
78855;BME280;68206;59.956;30.234;2024-03-23T09:37:29;99061.28;;;11.70;46.11
78855;BME280;68206;59.956;30.234;2024-03-23T09:39:55;99061.28;;;11.70;45.31
78855;BME280;68206;59.956;30.234;2024-03-23T09:42:22;99055.97;;;11.70;46.10
78855;BME280;68206;59.956;30.234;2024-03-23T09:44:50;99062.13;;;11.71;45.92
78855;BME280;68206;59.956;30.234;2024-03-23T09:47:19;99063.84;;;11.72;45.51
78855;BME280;68206;59.956;30.234;2024-03-23T09:49:47;99061.28;;;11.70;46.11
78855;BME280;68206;59.956;30.234;2024-03-23T09:52:16;99063.94;;;11.70;45.22
78855;BME280;68206;59.956;30.234;2024-03-23T09:54:43;99077.22;;;11.70;45.13
78855;BME280;68206;59.956;30.234;2024-03-23T09:57:10;99074.63;;;11.69;45.80
78855;BME280;68206;59.956;30.234;2024-03-23T09:59:36;99082.53;;;11.70;45.46
78855;BME280;68206;59.956;30.234;2024-03-23T10:02:04;99080.81;;;11.69;45.58
78855;BME280;68206;59.956;30.234;2024-03-23T10:04:37;99082.53;;;11.70;45.32
78855;BME280;68206;59.956;30.234;2024-03-23T10:07:11;99086.13;;;11.69;45.35
78855;BME280;68206;59.956;30.234;2024-03-23T10:09:40;99093.22;;;11.69;45.51
78855;BME280;68206;59.956;30.234;2024-03-23T10:12:09;99084.53;;;11.67;45.56
78855;BME280;68206;59.956;30.234;2024-03-23T10:14:36;99090.56;;;11.69;45.47
78855;BME280;68206;59.956;30.234;2024-03-23T10:17:12;99091.44;;;11.69;45.46
78855;BME280;68206;59.956;30.234;2024-03-23T10:19:40;99103.84;;;11.69;44.82
78855;BME280;68206;59.956;30.234;2024-03-23T10:22:09;99107.38;;;11.69;45.68
78855;BME280;68206;59.956;30.234;2024-03-23T10:24:35;99106.50;;;11.69;45.12
78855;BME280;68206;59.956;30.234;2024-03-23T10:27:04;99102.25;;;11.66;45.36
78855;BME280;68206;59.956;30.234;2024-03-23T10:29:31;99113.53;;;11.70;45.62
78855;BME280;68206;59.956;30.234;2024-03-23T10:32:08;99117.03;;;11.70;45.22
78855;BME280;68206;59.956;30.234;2024-03-23T10:34:35;99118.69;;;11.73;44.66
78855;BME280;68206;59.956;30.234;2024-03-23T10:37:03;99116.03;;;11.73;45.20
78855;BME280;68206;59.956;30.234;2024-03-23T10:39:34;99119.56;;;11.74;44.35
78855;BME280;68206;59.956;30.234;2024-03-23T10:42:04;99110.53;;;11.76;45.16
78855;BME280;68206;59.956;30.234;2024-03-23T10:44:31;99117.56;;;11.77;45.00
78855;BME280;68206;59.956;30.234;2024-03-23T10:46:59;99125.53;;;11.77;44.52
78855;BME280;68206;59.956;30.234;2024-03-23T10:49:28;99118.44;;;11.78;44.84
78855;BME280;68206;59.956;30.234;2024-03-23T10:51:57;99120.06;;;11.80;45.05
78855;BME280;68206;59.956;30.234;2024-03-23T10:54:24;99120.88;;;11.81;44.43
78855;BME280;68206;59.956;30.234;2024-03-23T10:56:57;99124.50;;;11.80;45.13
78855;BME280;68206;59.956;30.234;2024-03-23T10:59:26;99131.41;;;11.82;45.11
78855;BME280;68206;59.956;30.234;2024-03-23T11:01:55;99126.41;;;11.78;44.83
78855;BME280;68206;59.956;30.234;2024-03-23T11:04:32;99126.09;;;11.82;44.53
78855;BME280;68206;59.956;30.234;2024-03-23T11:07:00;99125.16;;;11.83;44.63
78855;BME280;68206;59.956;30.234;2024-03-23T11:09:38;99134.84;;;11.84;44.00
78855;BME280;68206;59.956;30.234;2024-03-23T11:12:28;99141.03;;;11.85;44.85
78855;BME280;68206;59.956;30.234;2024-03-23T11:15:01;99151.44;;;11.88;44.57
78855;BME280;68206;59.956;30.234;2024-03-23T11:17:29;99138.16;;;11.88;44.41
78855;BME280;68206;59.956;30.234;2024-03-23T11:19:58;99147.00;;;11.88;44.41
78855;BME280;68206;59.956;30.234;2024-03-23T11:22:43;99146.06;;;11.89;44.59
78855;BME280;68206;59.956;30.234;2024-03-23T11:25:14;99149.75;;;11.87;44.29
78855;BME280;68206;59.956;30.234;2024-03-23T11:27:40;99160.19;;;11.90;44.63
78855;BME280;68206;59.956;30.234;2024-03-23T11:30:16;99160.28;;;11.88;44.08
78855;BME280;68206;59.956;30.234;2024-03-23T11:32:44;99170.81;;;11.90;44.56
78855;BME280;68206;59.956;30.234;2024-03-23T11:35:25;99168.16;;;11.90;44.40
78855;BME280;68206;59.956;30.234;2024-03-23T11:38:04;99165.41;;;11.91;44.14
78855;BME280;68206;59.956;30.234;2024-03-23T11:40:32;99173.31;;;11.93;44.30
78855;BME280;68206;59.956;30.234;2024-03-23T11:43:00;99172.44;;;11.92;44.06
78855;BME280;68206;59.956;30.234;2024-03-23T11:45:33;99178.63;;;11.93;44.02
78855;BME280;68206;59.956;30.234;2024-03-23T11:48:05;99182.09;;;11.93;44.12
78855;BME280;68206;59.956;30.234;2024-03-23T11:50:33;99174.25;;;11.92;43.85
78855;BME280;68206;59.956;30.234;2024-03-23T11:53:07;99176.03;;;11.91;43.96
78855;BME280;68206;59.956;30.234;2024-03-23T11:55:43;99181.38;;;11.91;44.46
78855;BME280;68206;59.956;30.234;2024-03-23T11:58:10;99178.63;;;11.93;44.09
78855;BME280;68206;59.956;30.234;2024-03-23T12:00:39;99171.69;;;11.90;44.10
78855;BME280;68206;59.956;30.234;2024-03-23T12:03:06;99183.06;;;11.92;44.02
78855;BME280;68206;59.956;30.234;2024-03-23T12:05:33;99187.53;;;11.92;44.01
78855;BME280;68206;59.956;30.234;2024-03-23T12:08:16;99190.19;;;11.92;44.10
78855;BME280;68206;59.956;30.234;2024-03-23T12:10:47;99186.19;;;11.85;44.06
78855;BME280;68206;59.956;30.234;2024-03-23T12:13:15;99202.69;;;11.90;44.69
78855;BME280;68206;59.956;30.234;2024-03-23T12:15:45;99196.44;;;11.91;44.33
78855;BME280;68206;59.956;30.234;2024-03-23T12:18:12;99202.69;;;11.90;44.14
78855;BME280;68206;59.956;30.234;2024-03-23T12:20:39;99196.44;;;11.91;44.11
78855;BME280;68206;59.956;30.234;2024-03-23T12:23:09;99198.31;;;11.89;44.56
78855;BME280;68206;59.956;30.234;2024-03-23T12:25:39;99208.88;;;11.90;44.13
78855;BME280;68206;59.956;30.234;2024-03-23T12:28:07;99197.38;;;11.90;43.80
78855;BME280;68206;59.956;30.234;2024-03-23T12:30:35;99208.78;;;11.92;44.44
78855;BME280;68206;59.956;30.234;2024-03-23T12:33:04;99203.47;;;11.92;44.11
78855;BME280;68206;59.956;30.234;2024-03-23T12:35:31;99208.66;;;11.93;44.45
78855;BME280;68206;59.956;30.234;2024-03-23T12:37:57;99200.44;;;11.98;44.51
78855;BME280;68206;59.956;30.234;2024-03-23T12:40:25;99201.19;;;12.00;44.39
78855;BME280;68206;59.956;30.234;2024-03-23T12:42:51;99210.72;;;12.04;43.91
78855;BME280;68206;59.956;30.234;2024-03-23T12:45:19;99203.59;;;12.04;44.48
78855;BME280;68206;59.956;30.234;2024-03-23T12:47:45;99220.41;;;12.05;43.97
78855;BME280;68206;59.956;30.234;2024-03-23T12:50:14;99205.41;;;12.04;43.79
78855;BME280;68206;59.956;30.234;2024-03-23T12:52:40;99203.69;;;12.03;43.59
78855;BME280;68206;59.956;30.234;2024-03-23T12:55:08;99220.41;;;12.05;43.80
78855;BME280;68206;59.956;30.234;2024-03-23T12:57:34;99216.78;;;12.06;43.92
78855;BME280;68206;59.956;30.234;2024-03-23T13:00:03;99222.94;;;12.06;43.38
78855;BME280;68206;59.956;30.234;2024-03-23T13:02:30;99223.06;;;12.05;43.67
78855;BME280;68206;59.956;30.234;2024-03-23T13:04:57;99233.78;;;12.03;43.79
78855;BME280;68206;59.956;30.234;2024-03-23T13:07:25;99225.72;;;12.05;43.42
78855;BME280;68206;59.956;30.234;2024-03-23T13:09:53;99229.22;;;12.05;43.55
78855;BME280;68206;59.956;30.234;2024-03-23T13:12:19;99234.63;;;12.04;43.26
78855;BME280;68206;59.956;30.234;2024-03-23T13:14:47;99220.47;;;12.03;43.40
78855;BME280;68206;59.956;30.234;2024-03-23T13:17:13;99244.41;;;12.03;43.57
78855;BME280;68206;59.956;30.234;2024-03-23T13:19:41;99239.09;;;12.03;43.00
78855;BME280;68206;59.956;30.234;2024-03-23T13:22:07;99240.09;;;12.01;42.98
78855;BME280;68206;59.956;30.234;2024-03-23T13:24:38;99240.03;;;12.02;43.32
78855;BME280;68206;59.956;30.234;2024-03-23T13:27:05;99245.34;;;12.02;43.48
78855;BME280;68206;59.956;30.234;2024-03-23T13:29:34;99251.59;;;12.01;42.95
78855;BME280;68206;59.956;30.234;2024-03-23T13:32:00;99253.31;;;12.02;43.39
78855;BME280;68206;59.956;30.234;2024-03-23T13:34:27;99247.13;;;12.02;42.63
78855;BME280;68206;59.956;30.234;2024-03-23T13:36:55;99250.75;;;12.01;43.19
78855;BME280;68206;59.956;30.234;2024-03-23T13:39:24;99254.16;;;12.03;42.73
78855;BME280;68206;59.956;30.234;2024-03-23T13:41:52;99255.03;;;12.03;43.51
78855;BME280;68206;59.956;30.234;2024-03-23T13:44:20;99262.06;;;12.04;43.08
78855;BME280;68206;59.956;30.234;2024-03-23T13:46:46;99258.47;;;12.05;43.07
78855;BME280;68206;59.956;30.234;2024-03-23T13:49:24;99259.28;;;12.06;43.16